createdAt,value
2023-04-18T00:04:18.329Z,101641.59
2023-04-18T00:09:21.428Z,101640.13
2023-04-18T00:14:25.550Z,101639.88
2023-04-18T00:19:28.337Z,101634.00
2023-04-18T00:24:31.465Z,101632.53
2023-04-18T00:29:35.558Z,101637.97
2023-04-18T00:34:38.727Z,101639.91
2023-04-18T00:39:41.482Z,101626.47
2023-04-18T00:44:46.268Z,101637.09
2023-04-18T00:49:49.504Z,101633.00
2023-04-18T00:54:52.682Z,101636.97
2023-04-18T00:59:56.839Z,101631.41
2023-04-18T01:04:59.547Z,101627.66
2023-04-18T01:10:03.163Z,101627.41
2023-04-18T01:15:09.164Z,101631.06
2023-04-18T01:20:13.772Z,101627.88
2023-04-18T01:25:17.904Z,101621.25
2023-04-18T01:30:20.895Z,101626.75
2023-04-18T01:35:23.607Z,101623.53
2023-04-18T01:40:27.863Z,101617.38
2023-04-18T01:45:30.614Z,101624.34
2023-04-18T01:50:33.355Z,101622.16
2023-04-18T01:55:37.454Z,101620.56
2023-04-18T02:00:40.161Z,101619.53
2023-04-18T02:05:42.847Z,101622.03
2023-04-18T02:10:47.584Z,101622.84
2023-04-18T02:15:50.883Z,101624.47
2023-04-18T02:20:53.713Z,101623.31
2023-04-18T02:25:59.336Z,101622.84
2023-04-18T02:31:02.063Z,101631.63
2023-04-18T02:36:05.685Z,101636.75
2023-04-18T02:41:14.904Z,101631.03
2023-04-18T02:46:17.843Z,101633.34
2023-04-18T02:51:23.654Z,101637.69
2023-04-18T02:56:27.919Z,101644.97
2023-04-18T03:01:50.883Z,101648.16
2023-04-18T03:06:56.256Z,101646.34
2023-04-18T03:12:02.104Z,101643.13
2023-04-18T03:17:06.689Z,101652.94
2023-04-18T03:22:17.445Z,101655.56
2023-04-18T03:27:29.043Z,101664.22
2023-04-18T03:32:35.112Z,101664.38
2023-04-18T03:37:38.209Z,101674.19
2023-04-18T03:42:42.733Z,101677.34
2023-04-18T03:47:47.080Z,101678.72
2023-04-18T03:52:50.833Z,101692.28
2023-04-18T03:57:55.617Z,101690.81
2023-04-18T04:03:03.638Z,101706.34
2023-04-18T04:08:07.175Z,101717.25
2023-04-18T04:13:12.008Z,101719.06
2023-04-18T04:18:16.509Z,101719.66
2023-04-18T04:23:20.356Z,101716.66
2023-04-18T04:28:26.194Z,101714.28
2023-04-18T04:33:36.117Z,101694.22
2023-04-18T04:38:44.264Z,101699.00
2023-04-18T04:43:49.786Z,101708.38
2023-04-18T04:48:55.490Z,101697.88
2023-04-18T04:53:58.313Z,101706.78
2023-04-18T04:59:02.869Z,101724.31
2023-04-18T05:04:10.894Z,101733.69
2023-04-18T05:09:13.972Z,101750.66
2023-04-18T05:14:20.379Z,101753.06
2023-04-18T05:19:22.936Z,101746.78
2023-04-18T05:24:25.729Z,101740.91
2023-04-18T05:29:29.820Z,101764.03
2023-04-18T05:34:32.518Z,101774.59
2023-04-18T05:39:35.431Z,101800.25
2023-04-18T05:44:39.484Z,101805.91
2023-04-18T05:49:42.274Z,101817.38
2023-04-18T05:54:44.997Z,101813.03
2023-04-18T05:59:49.084Z,101833.25
2023-04-18T06:04:52.189Z,101846.50
2023-04-18T06:09:55.349Z,101861.22
2023-04-18T06:14:59.548Z,101865.41
2023-04-18T06:20:02.338Z,101871.38
2023-04-18T06:25:05.643Z,101892.00
2023-04-18T06:30:10.707Z,101894.09
2023-04-18T06:35:13.442Z,101907.31
2023-04-18T06:40:16.196Z,101911.63
2023-04-18T06:45:20.444Z,101923.50
2023-04-18T06:50:23.387Z,101930.91
2023-04-18T06:55:26.465Z,101944.75
2023-04-18T07:00:30.658Z,101950.28
2023-04-18T07:05:33.481Z,101961.97
2023-04-18T07:10:36.245Z,101966.50
2023-04-18T07:15:40.817Z,101973.91
2023-04-18T07:20:43.540Z,101973.31
2023-04-18T07:25:46.319Z,101972.34
2023-04-18T07:30:50.496Z,101978.44
2023-04-18T07:35:53.430Z,101986.59
2023-04-18T07:40:57.874Z,101994.84
2023-04-18T07:46:02.024Z,102002.66
2023-04-18T07:51:05.238Z,102009.84
2023-04-18T07:56:08.381Z,102012.94
2023-04-18T08:01:15.166Z,102006.97
2023-04-18T08:06:17.969Z,102017.69
2023-04-18T08:11:20.770Z,102019.41
2023-04-18T08:16:24.859Z,102035.28
2023-04-18T08:21:27.735Z,102026.06
2023-04-18T08:26:30.710Z,102026.97
2023-04-18T08:31:34.843Z,102022.84
2023-04-18T08:36:37.620Z,102013.47
2023-04-18T08:41:42.716Z,102029.44
2023-04-18T08:46:47.123Z,102038.50
2023-04-18T08:51:51.556Z,102035.63
2023-04-18T08:57:05.456Z,102025.59
2023-04-18T09:02:10.165Z,102029.03
2023-04-18T09:07:14.688Z,102038.31
2023-04-18T09:12:19.472Z,102047.25
2023-04-18T09:17:34.953Z,102050.94
2023-04-18T09:22:46.181Z,102044.44
2023-04-18T09:27:48.935Z,102045.63
2023-04-18T09:33:00.195Z,102032.75
2023-04-18T09:38:03.108Z,102030.94
2023-04-18T09:43:19.033Z,102026.19
2023-04-18T09:48:23.119Z,102023.13
2023-04-18T09:53:26.415Z,102027.75
2023-04-18T09:58:32.850Z,102022.81
2023-04-18T10:03:39.722Z,102030.78
2023-04-18T10:08:44.228Z,102025.06
2023-04-18T10:13:48.993Z,102013.13
2023-04-18T10:18:53.037Z,102001.53
2023-04-18T10:23:55.821Z,101989.31
2023-04-18T10:28:59.494Z,101985.91
2023-04-18T10:34:07.857Z,101973.63
2023-04-18T10:39:21.969Z,101967.25
2023-04-18T10:44:24.873Z,101968.66
2023-04-18T10:49:33.004Z,101954.72
2023-04-18T10:54:39.036Z,101967.81
2023-04-18T10:59:43.778Z,101945.81
2023-04-18T11:04:51.910Z,101941.63
2023-04-18T11:09:55.162Z,101915.72
2023-04-18T11:14:58.771Z,101928.91
2023-04-18T11:20:07.485Z,101902.78
2023-04-18T11:25:10.882Z,101893.28
2023-04-18T11:30:14.920Z,101888.06
2023-04-18T11:35:19.525Z,101861.72
2023-04-18T11:40:22.344Z,101855.69
2023-04-18T11:45:25.104Z,101851.41
2023-04-18T11:50:29.196Z,101848.78
2023-04-18T11:55:32.092Z,101847.16
2023-04-18T12:00:37.138Z,101825.34
2023-04-18T12:05:42.229Z,101833.91
2023-04-18T12:10:47.669Z,101828.03
2023-04-18T12:15:50.869Z,101817.06
2023-04-18T12:20:55.121Z,101789.31
2023-04-18T12:26:02.293Z,101758.50
2023-04-18T12:31:07.205Z,101758.81
2023-04-18T12:36:11.737Z,101760.97
2023-04-18T12:41:14.450Z,101736.53
2023-04-18T12:46:17.194Z,101734.47
2023-04-18T12:51:21.721Z,101732.34
2023-04-18T12:56:24.466Z,101728.38
2023-04-18T13:01:27.724Z,101720.94
2023-04-18T13:06:31.921Z,101724.78
2023-04-18T13:11:34.607Z,101709.75
2023-04-18T13:16:37.368Z,101697.00
2023-04-18T13:21:41.490Z,101717.63
2023-04-18T13:26:44.177Z,101701.84
2023-04-18T13:31:46.898Z,101699.00
2023-04-18T13:36:51.009Z,101701.69
2023-04-18T13:41:54.317Z,101685.06
2023-04-18T13:46:57.259Z,101682.44
2023-04-18T13:52:01.394Z,101674.97
2023-04-18T13:57:06.968Z,101669.47
2023-04-18T14:02:10.795Z,101668.56
2023-04-18T14:07:15.057Z,101675.34
2023-04-18T14:12:17.801Z,101674.97
2023-04-18T14:17:20.567Z,101670.69
2023-04-18T14:22:24.730Z,101666.28
2023-04-18T14:27:27.734Z,101644.09
2023-04-18T14:32:30.649Z,101638.66
2023-04-18T14:37:35.338Z,101652.44
2023-04-18T14:42:38.821Z,101647.94
2023-04-18T14:47:41.824Z,101642.50
2023-04-18T14:52:46.645Z,101625.66
2023-04-18T14:57:49.409Z,101638.59
2023-04-18T15:02:52.321Z,101636.00
2023-04-18T15:07:56.693Z,101630.47
2023-04-18T15:12:59.382Z,101618.34
2023-04-18T15:18:02.330Z,101621.75
2023-04-18T15:23:06.936Z,101620.44
2023-04-18T15:28:09.633Z,101612.47
2023-04-18T15:33:13.620Z,101607.97
2023-04-18T15:38:17.768Z,101611.06
2023-04-18T15:43:20.970Z,101607.59
2023-04-18T15:48:23.664Z,101603.63
2023-04-18T15:53:27.768Z,101613.53
2023-04-18T15:58:30.647Z,101618.63
2023-04-18T16:03:33.597Z,101619.25
2023-04-18T16:08:38.038Z,101615.41
2023-04-18T16:13:40.809Z,101607.38
2023-04-18T16:18:43.542Z,101617.72
2023-04-18T16:23:47.909Z,101613.59
2023-04-18T16:28:50.846Z,101612.25
2023-04-18T16:33:53.717Z,101620.53
2023-04-18T16:38:57.810Z,101618.44
2023-04-18T16:44:00.603Z,101618.03
2023-04-18T16:49:03.340Z,101627.41
2023-04-18T16:54:08.573Z,101613.47
2023-04-18T16:59:11.310Z,101626.28
2023-04-18T17:04:14.356Z,101620.75
2023-04-18T17:09:19.715Z,101621.41
2023-04-18T17:14:22.441Z,101628.69
2023-04-18T17:19:26.191Z,101627.94
2023-04-18T17:24:30.327Z,101628.75
2023-04-18T17:29:33.017Z,101630.44
2023-04-18T17:34:35.720Z,101636.13
2023-04-18T17:39:40.537Z,101625.81
2023-04-18T17:44:43.278Z,101631.94
2023-04-18T17:49:46.305Z,101634.34
2023-04-18T17:54:50.357Z,101641.19
2023-04-18T17:59:53.295Z,101656.88
2023-04-18T18:04:56.295Z,101657.78
2023-04-18T18:10:00.802Z,101662.06
2023-04-18T18:15:04.555Z,101666.75
2023-04-18T18:20:09.755Z,101666.25
2023-04-18T18:25:14.126Z,101667.84
2023-04-18T18:30:17.225Z,101674.22
2023-04-18T18:35:20.061Z,101686.13
2023-04-18T18:40:24.603Z,101678.41
2023-04-18T18:45:27.450Z,101678.72
2023-04-18T18:50:30.144Z,101689.44
2023-04-18T18:55:34.297Z,101690.50
2023-04-18T19:00:37.051Z,101701.06
2023-04-18T19:05:39.724Z,101694.50
2023-04-18T19:10:43.863Z,101695.56
2023-04-18T19:15:46.540Z,101695.22
2023-04-18T19:20:50.217Z,101705.84
2023-04-18T19:25:54.715Z,101701.72
2023-04-18T19:30:57.476Z,101707.38
2023-04-18T19:36:00.245Z,101712.84
2023-04-18T19:41:04.316Z,101709.03
2023-04-18T19:46:07.108Z,101710.47
2023-04-18T19:51:10.191Z,101713.47
2023-04-18T19:56:14.907Z,101713.00
2023-04-18T20:01:19.214Z,101717.00
2023-04-18T20:06:22.003Z,101726.09
2023-04-18T20:11:26.133Z,101721.81
2023-04-18T20:16:28.940Z,101726.72
2023-04-18T20:21:31.717Z,101734.00
2023-04-18T20:26:35.861Z,101726.34
2023-04-18T20:31:42.158Z,101717.84
2023-04-18T20:36:46.427Z,101723.72
2023-04-18T20:41:51.526Z,101728.69
2023-04-18T20:46:54.294Z,101728.50
2023-04-18T20:51:56.987Z,101731.94
2023-04-18T20:57:01.347Z,101745.69
2023-04-18T21:02:04.169Z,101748.31
2023-04-18T21:07:07.130Z,101751.78
2023-04-18T21:12:11.189Z,101764.34
2023-04-18T21:17:17.244Z,101773.78
2023-04-18T21:22:19.971Z,101768.63
2023-04-18T21:27:24.035Z,101788.28
2023-04-18T21:32:26.815Z,101797.28
2023-04-18T21:37:29.504Z,101815.66
2023-04-18T21:42:35.059Z,101840.41
2023-04-18T21:47:38.143Z,101854.22
2023-04-18T21:52:40.847Z,101861.41
2023-04-18T21:57:44.842Z,101876.34
2023-04-18T22:02:47.747Z,101882.34
2023-04-18T22:07:58.072Z,101886.16
2023-04-18T22:13:04.398Z,101891.97
2023-04-18T22:18:08.373Z,101897.53
2023-04-18T22:23:11.576Z,101892.88
2023-04-18T22:28:15.867Z,101899.16
2023-04-18T22:33:18.630Z,101892.97
2023-04-18T22:38:21.330Z,101899.16
2023-04-18T22:43:26.732Z,101886.88
2023-04-18T22:48:29.931Z,101891.16
2023-04-18T22:53:32.743Z,101892.97
2023-04-18T22:58:36.841Z,101897.88
2023-04-18T23:03:39.697Z,101896.44
2023-04-18T23:08:42.574Z,101897.25
2023-04-18T23:13:46.646Z,101894.63
2023-04-18T23:18:49.433Z,101889.34
2023-04-18T23:23:52.122Z,101890.97
2023-04-18T23:28:56.296Z,101890.88
2023-04-18T23:33:59.234Z,101883.66
2023-04-18T23:39:02.050Z,101881.84
2023-04-18T23:44:06.554Z,101872.63
2023-04-18T23:49:09.244Z,101866.44
2023-04-18T23:54:11.961Z,101862.00
2023-04-18T23:59:16.005Z,101852.84
